Time;durP1;ratioP1;P1;durP2;ratioP2;P2;SDS_P1;SDS_P2;PMS_P1;PMS_P2;Temp;Humidity;BMP_temperature;BMP_pressure;BME280_temperature;BME280_humidity;BME280_pressure;Samples;Min_cycle;Max_cycle;Signal;HPM_P1;HPM_P2
2022/03/26 00:01:26;;;;;;;23.50;17.33;;;;;;;;;;5032213;28;20030;-77
2022/03/26 00:03:52;;;;;;;22.65;15.80;;;;;;;;;;5032761;28;20038;-77
2022/03/26 00:06:18;;;;;;;26.42;16.35;;;;;;;;;;5031460;28;20484;-77
2022/03/26 00:08:44;;;;;;;25.13;17.00;;;;;;;;;;5032534;28;20057;-78
2022/03/26 00:11:10;;;;;;;24.45;15.15;;;;;;;;;;5031631;28;20392;-77
2022/03/26 00:13:36;;;;;;;24.30;16.73;;;;;;;;;;5032802;28;20026;-77
2022/03/26 00:16:03;;;;;;;23.52;15.23;;;;;;;;;;5032504;28;20025;-77
2022/03/26 00:18:29;;;;;;;23.65;14.30;;;;;;;;;;5032812;28;20029;-78
2022/03/26 00:20:55;;;;;;;19.92;14.85;;;;;;;;;;5032446;28;20021;-78
2022/03/26 00:23:21;;;;;;;22.15;14.93;;;;;;;;;;5032571;28;20032;-77
2022/03/26 00:25:47;;;;;;;25.92;17.17;;;;;;;;;;5032333;28;20025;-77
2022/03/26 00:28:13;;;;;;;24.42;16.70;;;;;;;;;;5032699;28;20044;-77
2022/03/26 00:30:39;;;;;;;25.15;16.17;;;;;;;;;;5032448;28;20076;-77
2022/03/26 00:33:05;;;;;;;23.77;15.20;;;;;;;;;;5032230;28;20095;-78
2022/03/26 00:35:32;;;;;;;28.55;17.38;;;;;;;;;;5032211;28;20022;-77
2022/03/26 00:37:58;;;;;;;26.77;16.95;;;;;;;;;;5032124;28;20033;-77
2022/03/26 00:40:24;;;;;;;23.33;15.93;;;;;;;;;;5032270;28;20080;-77
2022/03/26 00:42:50;;;;;;;29.73;17.85;;;;;;;;;;5032214;28;20113;-77
2022/03/26 00:45:16;;;;;;;26.42;18.55;;;;;;;;;;5032194;28;20032;-77
2022/03/26 00:47:43;;;;;;;23.13;15.95;;;;;;;;;;5032314;28;20080;-77
2022/03/26 00:50:10;;;;;;;24.13;16.77;;;;;;;;;;5031863;28;20083;-76
2022/03/26 00:52:36;;;;;;;25.92;15.90;;;;;;;;;;5031939;28;20049;-77
2022/03/26 00:55:03;;;;;;;23.58;15.77;;;;;;;;;;5032096;28;20029;-77
2022/03/26 00:57:29;;;;;;;25.83;17.48;;;;;;;;;;5032048;28;20048;-77
2022/03/26 00:59:58;;;;;;;28.15;17.45;;;;;;;;;;5032238;28;20037;-78
2022/03/26 01:02:24;;;;;;;29.98;17.95;;;;;;;;;;5031924;28;20029;-77
2022/03/26 01:04:50;;;;;;;24.58;16.60;;;;;;;;;;5032217;28;20049;-77
2022/03/26 01:07:16;;;;;;;22.83;15.40;;;;;;;;;;5031931;28;20037;-78
2022/03/26 01:09:42;;;;;;;24.35;17.33;;;;;;;;;;5032232;28;20083;-78
2022/03/26 01:12:09;;;;;;;22.27;15.82;;;;;;;;;;5033166;28;20029;-77
2022/03/26 01:14:36;;;;;;;20.08;14.18;;;;;;;;;;5036223;28;20040;-78
2022/03/26 01:17:02;;;;;;;21.50;14.05;;;;;;;;;;5035860;28;20109;-78
2022/03/26 01:19:28;;;;;;;24.15;14.77;;;;;;;;;;5035971;28;20060;-77
2022/03/26 01:21:54;;;;;;;21.70;14.93;;;;;;;;;;5036087;28;20032;-77
2022/03/26 01:24:20;;;;;;;24.20;15.38;;;;;;;;;;5035627;28;20103;-78
2022/03/26 01:26:46;;;;;;;22.30;14.95;;;;;;;;;;5035831;28;20065;-78
2022/03/26 01:29:12;;;;;;;22.23;15.18;;;;;;;;;;5035628;28;20034;-78
2022/03/26 01:31:38;;;;;;;20.70;14.80;;;;;;;;;;5035650;28;20501;-78
2022/03/26 01:34:05;;;;;;;21.20;15.63;;;;;;;;;;5035704;28;20029;-79
2022/03/26 01:36:31;;;;;;;28.50;16.05;;;;;;;;;;5035652;28;20472;-78
2022/03/26 01:38:57;;;;;;;29.27;17.95;;;;;;;;;;5035816;28;20025;-77
2022/03/26 01:41:24;;;;;;;26.70;17.17;;;;;;;;;;5035359;28;20025;-77
2022/03/26 01:43:50;;;;;;;27.88;18.80;;;;;;;;;;5035655;28;20488;-78
2022/03/26 01:46:16;;;;;;;27.05;17.80;;;;;;;;;;5035148;28;20104;-78
2022/03/26 01:48:42;;;;;;;24.42;16.10;;;;;;;;;;5035479;28;20477;-78
2022/03/26 01:51:14;;;;;;;21.80;14.45;;;;;;;;;;5035226;28;20063;-77
2022/03/26 01:53:44;;;;;;;22.33;14.90;;;;;;;;;;5035044;28;20129;-77
2022/03/26 01:56:11;;;;;;;21.20;13.65;;;;;;;;;;5034946;28;20049;-78
2022/03/26 01:58:38;;;;;;;21.33;12.82;;;;;;;;;;5035237;28;20033;-80
2022/03/26 02:01:05;;;;;;;19.92;13.00;;;;;;;;;;5035128;28;20034;-78
2022/03/26 02:03:32;;;;;;;20.23;14.50;;;;;;;;;;5035107;28;20076;-78
2022/03/26 02:05:58;;;;;;;21.10;12.80;;;;;;;;;;5035042;28;20032;-78
2022/03/26 02:08:25;;;;;;;19.83;12.38;;;;;;;;;;5034881;28;20041;-78
2022/03/26 02:10:51;;;;;;;19.88;13.70;;;;;;;;;;5034998;28;20116;-77
2022/03/26 02:13:17;;;;;;;21.08;14.32;;;;;;;;;;5034641;28;20482;-78
2022/03/26 02:15:44;;;;;;;19.50;14.70;;;;;;;;;;5034972;28;20033;-78
2022/03/26 02:18:10;;;;;;;19.20;13.98;;;;;;;;;;5034887;28;20412;-77
2022/03/26 02:20:36;;;;;;;21.75;13.75;;;;;;;;;;5034767;28;20397;-78
2022/03/26 02:23:02;;;;;;;19.48;14.90;;;;;;;;;;5034684;28;20479;-77
2022/03/26 02:25:28;;;;;;;26.08;15.88;;;;;;;;;;5033930;28;20436;-77
2022/03/26 02:27:55;;;;;;;21.25;13.55;;;;;;;;;;5034572;28;20533;-77
2022/03/26 02:30:21;;;;;;;22.35;14.27;;;;;;;;;;5034540;28;20104;-78
2022/03/26 02:32:48;;;;;;;23.17;13.48;;;;;;;;;;5034801;28;20183;-78
2022/03/26 02:35:14;;;;;;;18.20;13.20;;;;;;;;;;5034477;28;20026;-78
2022/03/26 02:37:41;;;;;;;22.27;13.85;;;;;;;;;;5034519;28;20033;-78
2022/03/26 02:40:08;;;;;;;27.52;18.50;;;;;;;;;;5034528;28;20080;-78
2022/03/26 02:42:37;;;;;;;30.25;19.02;;;;;;;;;;5034070;28;20021;-78
2022/03/26 02:45:04;;;;;;;32.70;21.05;;;;;;;;;;5034465;28;20025;-78
2022/03/26 02:47:30;;;;;;;32.92;20.92;;;;;;;;;;5034112;28;20488;-78
2022/03/26 02:49:56;;;;;;;31.48;21.10;;;;;;;;;;5034431;28;20028;-78
2022/03/26 02:52:23;;;;;;;30.48;22.08;;;;;;;;;;5034129;28;20542;-77
2022/03/26 02:54:49;;;;;;;30.80;23.25;;;;;;;;;;5034009;28;20064;-77
2022/03/26 02:57:15;;;;;;;29.45;21.27;;;;;;;;;;5033763;28;20067;-78
2022/03/26 02:59:41;;;;;;;32.70;23.13;;;;;;;;;;5033893;28;20432;-77
2022/03/26 03:02:09;;;;;;;32.50;22.83;;;;;;;;;;5034114;28;20464;-78
2022/03/26 03:04:36;;;;;;;32.00;22.52;;;;;;;;;;5033632;28;20029;-78
2022/03/26 03:07:02;;;;;;;30.67;22.42;;;;;;;;;;5033899;28;20060;-77
2022/03/26 03:09:28;;;;;;;30.65;21.92;;;;;;;;;;5033720;28;20036;-77
2022/03/26 03:11:55;;;;;;;31.70;21.33;;;;;;;;;;5033821;28;20492;-78
2022/03/26 03:14:21;;;;;;;30.17;21.55;;;;;;;;;;5033708;28;20032;-77
2022/03/26 03:16:48;;;;;;;30.83;21.05;;;;;;;;;;5033745;28;20111;-77
2022/03/26 03:19:14;;;;;;;32.45;22.45;;;;;;;;;;5033784;28;20366;-78
2022/03/26 03:21:40;;;;;;;32.65;21.80;;;;;;;;;;5033483;28;20021;-78
2022/03/26 03:24:06;;;;;;;32.25;22.98;;;;;;;;;;5033574;28;20036;-78
2022/03/26 03:26:33;;;;;;;27.27;20.33;;;;;;;;;;5033348;28;20448;-78
2022/03/26 03:28:59;;;;;;;32.88;23.42;;;;;;;;;;5033613;28;20029;-78
2022/03/26 03:31:25;;;;;;;31.10;21.95;;;;;;;;;;5032323;28;20397;-78
2022/03/26 03:33:52;;;;;;;30.48;22.20;;;;;;;;;;5033551;28;20026;-77
2022/03/26 03:36:18;;;;;;;31.17;20.27;;;;;;;;;;5032360;28;20491;-77
2022/03/26 03:38:44;;;;;;;30.67;20.33;;;;;;;;;;5031879;28;20030;-77
2022/03/26 03:41:10;;;;;;;30.45;18.90;;;;;;;;;;5033252;28;20037;-77
2022/03/26 03:43:36;;;;;;;25.98;18.13;;;;;;;;;;5031901;28;20064;-77
2022/03/26 03:46:02;;;;;;;28.85;20.33;;;;;;;;;;5033345;28;20117;-78
2022/03/26 03:48:28;;;;;;;28.05;19.00;;;;;;;;;;5033085;28;20396;-78
2022/03/26 03:50:54;;;;;;;28.30;20.00;;;;;;;;;;5033010;28;20025;-78
2022/03/26 03:53:20;;;;;;;26.73;18.92;;;;;;;;;;5033085;28;20536;-78
2022/03/26 03:55:47;;;;;;;30.00;19.85;;;;;;;;;;5032928;28;20033;-78
2022/03/26 03:58:13;;;;;;;32.85;21.00;;;;;;;;;;5032938;28;20524;-78
2022/03/26 04:00:39;;;;;;;34.92;19.83;;;;;;;;;;5032690;28;20036;-77
2022/03/26 04:03:05;;;;;;;25.60;18.95;;;;;;;;;;5033079;28;20079;-78
2022/03/26 04:05:31;;;;;;;28.67;20.77;;;;;;;;;;5032895;28;20104;-78
2022/03/26 04:07:57;;;;;;;28.80;18.70;;;;;;;;;;5032727;28;20417;-78
2022/03/26 04:10:24;;;;;;;27.25;19.73;;;;;;;;;;5032792;28;20018;-77
2022/03/26 04:12:50;;;;;;;30.67;19.95;;;;;;;;;;5032466;28;20060;-78
2022/03/26 04:15:16;;;;;;;31.48;21.55;;;;;;;;;;5032728;28;20112;-77
2022/03/26 04:17:42;;;;;;;30.20;22.10;;;;;;;;;;5032492;28;20061;-78
2022/03/26 04:20:10;;;;;;;27.63;20.15;;;;;;;;;;5031403;28;20362;-78
2022/03/26 04:22:37;;;;;;;28.27;20.83;;;;;;;;;;5032581;28;20436;-78
2022/03/26 04:25:04;;;;;;;32.42;23.02;;;;;;;;;;5032459;28;20040;-78
2022/03/26 04:27:30;;;;;;;36.17;22.95;;;;;;;;;;5032286;28;20037;-78
2022/03/26 04:29:56;;;;;;;36.22;24.92;;;;;;;;;;5032303;28;20034;-79
2022/03/26 04:32:22;;;;;;;43.03;27.63;;;;;;;;;;5032626;28;20553;-78
2022/03/26 04:34:48;;;;;;;43.28;29.92;;;;;;;;;;5032209;28;20029;-78
2022/03/26 04:37:15;;;;;;;48.85;33.58;;;;;;;;;;5032419;28;20040;-77
2022/03/26 04:39:41;;;;;;;51.58;30.67;;;;;;;;;;5032206;28;20396;-77
2022/03/26 04:42:08;;;;;;;48.70;30.02;;;;;;;;;;5032357;28;20025;-78
2022/03/26 04:44:34;;;;;;;51.55;30.55;;;;;;;;;;5032128;28;20025;-77
2022/03/26 04:47:00;;;;;;;40.15;24.25;;;;;;;;;;5031590;28;20037;-78
2022/03/26 04:49:26;;;;;;;31.90;22.00;;;;;;;;;;5032420;28;20119;-77
2022/03/26 04:51:52;;;;;;;29.92;21.00;;;;;;;;;;5031734;28;20389;-78
2022/03/26 04:54:18;;;;;;;37.20;23.23;;;;;;;;;;5032070;28;20053;-77
2022/03/26 04:56:44;;;;;;;71.75;44.38;;;;;;;;;;5032173;28;20027;-78
2022/03/26 04:59:11;;;;;;;38.10;25.60;;;;;;;;;;5032342;28;20118;-77
2022/03/26 05:01:37;;;;;;;31.75;22.45;;;;;;;;;;5032229;28;20079;-77
2022/03/26 05:04:03;;;;;;;34.28;23.42;;;;;;;;;;5031978;28;20033;-77
2022/03/26 05:06:29;;;;;;;34.90;22.92;;;;;;;;;;5032032;28;20029;-77
2022/03/26 05:08:55;;;;;;;30.02;19.27;;;;;;;;;;5031836;28;20026;-77
2022/03/26 05:11:22;;;;;;;30.83;20.80;;;;;;;;;;5032286;28;20503;-78
2022/03/26 05:13:49;;;;;;;28.40;18.85;;;;;;;;;;5032253;28;20025;-78
2022/03/26 05:16:15;;;;;;;30.92;18.67;;;;;;;;;;5032009;28;20056;-79
2022/03/26 05:18:41;;;;;;;31.95;20.80;;;;;;;;;;5032162;28;20036;-79
2022/03/26 05:21:08;;;;;;;51.42;34.33;;;;;;;;;;5031872;28;20025;-78
2022/03/26 05:23:35;;;;;;;49.17;28.63;;;;;;;;;;5032723;28;20025;-79
2022/03/26 05:26:01;;;;;;;35.50;25.55;;;;;;;;;;5031916;28;20087;-80
2022/03/26 05:28:27;;;;;;;64.50;42.38;;;;;;;;;;5032536;28;20033;-81
2022/03/26 05:30:54;;;;;;;73.22;43.60;;;;;;;;;;5032894;28;20033;-80
2022/03/26 05:33:20;;;;;;;33.25;20.98;;;;;;;;;;5032735;28;20163;-81
2022/03/26 05:35:46;;;;;;;32.88;20.75;;;;;;;;;;5031342;28;20026;-80
2022/03/26 05:38:13;;;;;;;40.53;26.27;;;;;;;;;;5031676;28;20025;-79
2022/03/26 05:40:39;;;;;;;35.55;21.15;;;;;;;;;;5031973;28;20108;-79
2022/03/26 05:43:06;;;;;;;36.15;20.45;;;;;;;;;;5031560;28;20545;-79
2022/03/26 05:45:32;;;;;;;22.23;15.30;;;;;;;;;;5031901;28;20033;-77
2022/03/26 05:48:01;;;;;;;20.77;13.93;;;;;;;;;;5031550;28;20092;-77
2022/03/26 05:50:28;;;;;;;19.40;13.02;;;;;;;;;;5031866;28;20053;-79
2022/03/26 05:52:54;;;;;;;17.20;12.68;;;;;;;;;;5031341;28;20060;-78
2022/03/26 05:55:20;;;;;;;19.67;12.20;;;;;;;;;;5031382;28;20040;-78
2022/03/26 05:57:47;;;;;;;15.48;11.10;;;;;;;;;;5031597;28;20029;-78
2022/03/26 06:00:13;;;;;;;16.95;11.90;;;;;;;;;;5034014;28;20064;-78
2022/03/26 06:02:39;;;;;;;15.85;10.52;;;;;;;;;;5035081;28;20032;-78
2022/03/26 06:05:06;;;;;;;19.20;9.77;;;;;;;;;;5035034;28;20025;-79
2022/03/26 06:07:32;;;;;;;17.85;10.93;;;;;;;;;;5035063;28;20037;-79
2022/03/26 06:09:59;;;;;;;17.05;10.63;;;;;;;;;;5034955;28;20026;-78
2022/03/26 06:12:25;;;;;;;16.15;10.93;;;;;;;;;;5034884;28;20036;-78
2022/03/26 06:14:51;;;;;;;16.23;11.95;;;;;;;;;;5034990;28;20030;-78
2022/03/26 06:17:17;;;;;;;15.77;11.68;;;;;;;;;;5034662;28;20034;-78
2022/03/26 06:19:44;;;;;;;63.20;41.30;;;;;;;;;;5034902;28;20029;-77
2022/03/26 06:22:10;;;;;;;33.05;20.95;;;;;;;;;;5034698;28;20026;-78
2022/03/26 06:24:37;;;;;;;21.23;13.77;;;;;;;;;;5034727;28;20465;-78
2022/03/26 06:27:03;;;;;;;23.17;14.85;;;;;;;;;;5034747;28;20104;-78
2022/03/26 06:29:29;;;;;;;17.58;10.80;;;;;;;;;;5034214;28;20025;-78
2022/03/26 06:31:55;;;;;;;17.92;11.38;;;;;;;;;;5034911;28;20510;-78
2022/03/26 06:34:24;;;;;;;22.27;15.07;;;;;;;;;;5034501;28;20025;-79
2022/03/26 06:36:50;;;;;;;29.45;21.83;;;;;;;;;;5034597;28;20520;-79
2022/03/26 06:39:16;;;;;;;18.83;13.38;;;;;;;;;;5034439;28;20083;-79
2022/03/26 06:41:44;;;;;;;19.65;12.43;;;;;;;;;;5034504;28;20057;-79
2022/03/26 06:44:10;;;;;;;21.10;11.90;;;;;;;;;;5034255;28;20079;-78
2022/03/26 06:46:37;;;;;;;15.45;10.48;;;;;;;;;;5034224;28;20033;-79
2022/03/26 06:49:03;;;;;;;15.15;10.27;;;;;;;;;;5034398;28;20052;-80
2022/03/26 06:51:31;;;;;;;20.92;13.32;;;;;;;;;;5033125;28;20053;-81
2022/03/26 06:53:58;;;;;;;24.90;16.75;;;;;;;;;;5032993;28;20069;-81
2022/03/26 06:56:27;;;;;;;69.50;49.83;;;;;;;;;;5016755;28;20388;-81
2022/03/26 06:58:54;;;;;;;27.52;15.88;;;;;;;;;;5033185;28;20034;-80
2022/03/26 07:01:20;;;;;;;16.02;11.15;;;;;;;;;;5034102;28;20026;-80
2022/03/26 07:03:48;;;;;;;18.73;10.60;;;;;;;;;;5034220;28;20029;-80
2022/03/26 07:06:16;;;;;;;17.00;10.75;;;;;;;;;;5032912;28;20037;-81
2022/03/26 07:08:42;;;;;;;15.75;11.20;;;;;;;;;;5032841;28;20400;-80
2022/03/26 07:11:09;;;;;;;18.02;12.40;;;;;;;;;;5033494;28;20037;-79
2022/03/26 07:13:36;;;;;;;16.17;12.02;;;;;;;;;;5032407;28;20473;-81
2022/03/26 07:16:03;;;;;;;19.58;13.18;;;;;;;;;;5033826;28;20037;-80
2022/03/26 07:18:29;;;;;;;18.27;12.88;;;;;;;;;;5032614;28;20033;-81
2022/03/26 07:21:00;;;;;;;18.77;11.73;;;;;;;;;;5033850;28;20025;-81
2022/03/26 07:23:27;;;;;;;19.67;11.85;;;;;;;;;;5033653;28;20095;-81
2022/03/26 07:25:54;;;;;;;19.95;12.30;;;;;;;;;;5033490;28;20528;-80
2022/03/26 07:28:21;;;;;;;56.30;35.55;;;;;;;;;;5032186;28;20502;-80
2022/03/26 07:30:48;;;;;;;33.17;18.77;;;;;;;;;;5032403;28;20041;-79
2022/03/26 07:33:14;;;;;;;21.48;13.98;;;;;;;;;;5032113;28;20033;-80
2022/03/26 07:35:40;;;;;;;20.40;12.25;;;;;;;;;;5033615;28;20034;-80
2022/03/26 07:38:06;;;;;;;18.63;12.50;;;;;;;;;;5032526;28;20025;-79
2022/03/26 07:40:33;;;;;;;18.15;12.63;;;;;;;;;;5032128;28;20033;-79
2022/03/26 07:42:59;;;;;;;20.45;13.20;;;;;;;;;;5032150;28;20128;-78
2022/03/26 07:45:25;;;;;;;18.45;12.48;;;;;;;;;;5033215;28;20029;-80
2022/03/26 07:47:52;;;;;;;17.52;11.57;;;;;;;;;;5033331;28;20048;-80
2022/03/26 07:50:18;;;;;;;19.05;12.15;;;;;;;;;;5031944;28;20121;-80
2022/03/26 07:52:44;;;;;;;16.35;10.98;;;;;;;;;;5031648;28;20029;-79
2022/03/26 07:55:10;;;;;;;21.35;14.23;;;;;;;;;;5033101;28;20025;-79
2022/03/26 07:57:37;;;;;;;17.42;13.18;;;;;;;;;;5031721;28;20033;-80
2022/03/26 08:00:04;;;;;;;17.48;13.13;;;;;;;;;;5032962;28;20104;-80
2022/03/26 08:02:30;;;;;;;19.35;14.13;;;;;;;;;;5032810;28;20026;-79
2022/03/26 08:04:56;;;;;;;24.88;13.45;;;;;;;;;;5032835;28;20477;-80
2022/03/26 08:07:22;;;;;;;18.58;12.65;;;;;;;;;;5032815;28;20038;-79
2022/03/26 08:09:48;;;;;;;20.52;12.68;;;;;;;;;;5032735;28;20036;-78
2022/03/26 08:12:15;;;;;;;22.20;14.38;;;;;;;;;;5032795;28;20029;-78
2022/03/26 08:14:41;;;;;;;19.65;13.68;;;;;;;;;;5032887;28;20449;-80
2022/03/26 08:17:07;;;;;;;19.25;15.43;;;;;;;;;;5032978;28;20029;-80
2022/03/26 08:22:18;;;;;;;;;;;;;;;;;;5031658;28;20072;-80
2022/03/26 08:24:44;;;;;;;22.75;14.82;;;;;;;;;;5033079;28;19909;-80
2022/03/26 08:27:10;;;;;;;23.52;14.70;;;;;;;;;;5032615;28;20053;-79
2022/03/26 08:29:36;;;;;;;20.75;14.07;;;;;;;;;;5032518;28;20082;-79
2022/03/26 08:32:05;;;;;;;21.38;14.07;;;;;;;;;;5031911;28;20115;-80
2022/03/26 08:34:31;;;;;;;18.38;12.55;;;;;;;;;;5031784;28;20018;-79
2022/03/26 08:36:57;;;;;;;16.08;12.02;;;;;;;;;;5032438;28;20021;-79
2022/03/26 08:39:24;;;;;;;24.73;16.15;;;;;;;;;;5032460;28;20784;-79
2022/03/26 08:41:50;;;;;;;23.90;16.33;;;;;;;;;;5032818;28;20473;-79
2022/03/26 08:44:16;;;;;;;24.48;15.60;;;;;;;;;;5030821;28;20025;-78
2022/03/26 08:46:43;;;;;;;22.58;15.05;;;;;;;;;;5031158;28;20485;-78
2022/03/26 08:49:09;;;;;;;19.33;13.55;;;;;;;;;;5032342;28;20105;-78
2022/03/26 08:51:35;;;;;;;18.10;12.77;;;;;;;;;;5032054;28;20084;-78
2022/03/26 08:54:03;;;;;;;15.57;11.07;;;;;;;;;;5032366;28;20053;-78
2022/03/26 08:56:29;;;;;;;17.80;11.93;;;;;;;;;;5032530;28;20067;-79
2022/03/26 08:58:57;;;;;;;15.93;10.80;;;;;;;;;;5032554;28;20076;-78
2022/03/26 09:01:24;;;;;;;13.98;10.27;;;;;;;;;;5030903;28;20041;-79
2022/03/26 09:03:50;;;;;;;17.02;11.48;;;;;;;;;;5032453;28;20440;-79
2022/03/26 09:06:17;;;;;;;17.67;11.65;;;;;;;;;;5030979;28;20484;-78
2022/03/26 09:08:43;;;;;;;28.88;19.75;;;;;;;;;;5032177;28;20052;-77
2022/03/26 09:11:09;;;;;;;25.27;16.27;;;;;;;;;;5032144;28;20021;-78
2022/03/26 09:13:36;;;;;;;18.00;11.82;;;;;;;;;;5030163;28;20025;-79
2022/03/26 09:16:02;;;;;;;17.05;10.07;;;;;;;;;;5031944;28;20025;-77
2022/03/26 09:18:28;;;;;;;19.23;11.15;;;;;;;;;;5032126;28;20025;-78
2022/03/26 09:20:55;;;;;;;15.35;9.07;;;;;;;;;;5032047;28;20056;-79
2022/03/26 09:23:21;;;;;;;14.23;8.90;;;;;;;;;;5031931;28;20037;-78
2022/03/26 09:25:47;;;;;;;11.27;7.93;;;;;;;;;;5032341;28;20505;-78
2022/03/26 09:28:14;;;;;;;10.75;8.30;;;;;;;;;;5031492;28;20029;-78
2022/03/26 09:30:41;;;;;;;11.00;8.10;;;;;;;;;;5030726;28;20037;-78
2022/03/26 09:33:07;;;;;;;12.93;7.68;;;;;;;;;;5031964;28;20041;-78
2022/03/26 09:35:33;;;;;;;14.23;8.68;;;;;;;;;;5034445;28;20099;-78
2022/03/26 09:38:00;;;;;;;14.13;8.30;;;;;;;;;;5035940;28;20469;-78
2022/03/26 09:40:26;;;;;;;11.73;7.00;;;;;;;;;;5035635;28;20558;-78
2022/03/26 09:42:53;;;;;;;11.50;6.70;;;;;;;;;;5035581;28;20030;-77
2022/03/26 09:45:19;;;;;;;13.13;6.75;;;;;;;;;;5034954;28;20029;-78
2022/03/26 09:47:45;;;;;;;12.07;7.53;;;;;;;;;;5034599;28;20374;-80
2022/03/26 09:50:12;;;;;;;12.45;6.18;;;;;;;;;;5034735;28;20025;-78
2022/03/26 09:52:38;;;;;;;13.52;5.32;;;;;;;;;;5034602;28;20412;-80
2022/03/26 09:55:05;;;;;;;10.30;6.10;;;;;;;;;;5034783;28;20049;-78
2022/03/26 09:57:31;;;;;;;9.70;5.93;;;;;;;;;;5034581;28;20025;-79
2022/03/26 09:59:58;;;;;;;9.63;5.75;;;;;;;;;;5035349;28;20128;-78
2022/03/26 10:02:25;;;;;;;8.77;5.35;;;;;;;;;;5034586;28;20461;-78
2022/03/26 10:04:52;;;;;;;9.13;5.38;;;;;;;;;;5034869;28;20389;-79
2022/03/26 10:07:18;;;;;;;10.02;4.88;;;;;;;;;;5032881;28;20057;-78
2022/03/26 10:09:48;;;;;;;10.32;4.93;;;;;;;;;;5034415;28;20057;-79
2022/03/26 10:12:18;;;;;;;8.02;4.43;;;;;;;;;;5034401;28;20532;-79
2022/03/26 10:14:45;;;;;;;9.15;4.43;;;;;;;;;;5034358;28;20022;-77
2022/03/26 10:17:31;;;;;;;7.85;4.40;;;;;;;;;;5034461;28;20022;-77
2022/03/26 10:19:58;;;;;;;8.15;4.88;;;;;;;;;;5033238;28;20480;-77
2022/03/26 10:22:27;;;;;;;10.43;4.82;;;;;;;;;;5033666;28;20464;-78
2022/03/26 10:24:54;;;;;;;7.40;4.75;;;;;;;;;;5034952;28;20025;-77
2022/03/26 10:27:20;;;;;;;7.70;4.57;;;;;;;;;;5033883;28;20057;-77
2022/03/26 10:30:05;;;;;;;10.85;5.45;;;;;;;;;;5034971;28;20025;-77
2022/03/26 10:32:43;;;;;;;6.80;4.00;;;;;;;;;;5034780;28;20393;-78
2022/03/26 10:35:28;;;;;;;8.02;4.72;;;;;;;;;;5034616;28;20035;-79
2022/03/26 10:37:56;;;;;;;7.72;4.75;;;;;;;;;;5034378;28;20056;-78
2022/03/26 10:40:24;;;;;;;7.70;4.28;;;;;;;;;;5033829;28;20044;-77
2022/03/26 10:43:13;;;;;;;6.78;4.03;;;;;;;;;;5033187;28;20358;-77
2022/03/26 10:45:53;;;;;;;8.18;4.65;;;;;;;;;;5028270;28;20048;-78
2022/03/26 10:48:28;;;;;;;8.77;4.43;;;;;;;;;;5032483;28;20492;-78
2022/03/26 10:50:55;;;;;;;6.00;4.22;;;;;;;;;;5031683;28;20473;-78
2022/03/26 10:53:21;;;;;;;6.55;3.75;;;;;;;;;;5033543;28;20054;-78
2022/03/26 10:55:49;;;;;;;6.75;3.67;;;;;;;;;;5033855;28;20029;-78
2022/03/26 10:58:15;;;;;;;8.25;4.78;;;;;;;;;;5033456;28;20475;-77
2022/03/26 11:00:46;;;;;;;6.45;3.83;;;;;;;;;;5033666;28;20033;-75
2022/03/26 11:03:12;;;;;;;7.95;4.00;;;;;;;;;;5031304;28;20401;-76
2022/03/26 11:05:39;;;;;;;8.20;4.25;;;;;;;;;;5033386;28;20025;-81
2022/03/26 11:08:06;;;;;;;9.68;4.68;;;;;;;;;;5032972;28;20398;-79
2022/03/26 11:10:32;;;;;;;5.55;3.95;;;;;;;;;;5033164;28;20435;-80
2022/03/26 11:13:00;;;;;;;7.47;3.85;;;;;;;;;;5033132;28;20049;-79
2022/03/26 11:15:30;;;;;;;6.10;3.50;;;;;;;;;;5033288;28;20022;-78
2022/03/26 11:18:14;;;;;;;14.35;4.50;;;;;;;;;;5032946;28;20032;-78
2022/03/26 11:20:59;;;;;;;5.60;3.67;;;;;;;;;;5033499;28;20030;-79
2022/03/26 11:23:43;;;;;;;4.53;2.63;;;;;;;;;;5033385;28;20030;-81
2022/03/26 11:26:36;;;;;;;6.18;3.00;;;;;;;;;;5033364;28;20033;-78
2022/03/26 11:29:21;;;;;;;6.40;3.08;;;;;;;;;;5032295;28;20080;-79
2022/03/26 11:31:47;;;;;;;;;;;;;;;;;;5032938;28;20037;-79
2022/03/26 11:34:16;;;;;;;4.85;2.40;;;;;;;;;;5033009;28;19905;-79
2022/03/26 11:36:43;;;;;;;4.97;2.80;;;;;;;;;;5013517;28;20036;-79
2022/03/26 11:39:13;;;;;;;6.45;3.60;;;;;;;;;;5013683;28;20069;-77
2022/03/26 11:41:39;;;;;;;7.78;4.65;;;;;;;;;;5013294;28;20034;-77
2022/03/26 11:44:07;;;;;;;7.43;3.90;;;;;;;;;;5013573;28;20100;-77
2022/03/26 11:52:24;;;;;;;6.47;3.70;;;;;;;;;;5013372;28;20072;-77
2022/03/26 11:54:55;;;;;;;8.65;6.95;;;;;;;;;;5027833;28;20500;-77
2022/03/26 11:57:22;;;;;;;8.25;5.45;;;;;;;;;;5012364;28;20057;-78
2022/03/26 11:59:49;;;;;;;11.15;6.55;;;;;;;;;;5012936;28;20080;-78
2022/03/26 12:02:21;;;;;;;8.40;4.03;;;;;;;;;;5013371;28;20469;-78
2022/03/26 12:07:51;;;;;;;6.47;3.95;;;;;;;;;;5013477;28;20520;-78
2022/03/26 12:10:20;;;;;;;6.15;3.70;;;;;;;;;;5012940;28;20030;-78
2022/03/26 12:12:50;;;;;;;8.63;4.20;;;;;;;;;;5013175;28;20076;-77
2022/03/26 12:15:16;;;;;;;9.45;5.18;;;;;;;;;;5012882;28;20026;-78
2022/03/26 12:17:44;;;;;;;11.73;9.40;;;;;;;;;;5012680;28;20025;-78
2022/03/26 12:20:31;;;;;;;18.50;11.20;;;;;;;;;;5012657;28;20088;-78
2022/03/26 12:23:16;;;;;;;10.45;5.15;;;;;;;;;;5012722;28;20505;-78
2022/03/26 12:25:46;;;;;;;8.40;5.07;;;;;;;;;;5012848;28;20481;-79
2022/03/26 12:28:17;;;;;;;10.38;5.72;;;;;;;;;;5028402;28;20703;-78
2022/03/26 12:30:47;;;;;;;7.88;5.22;;;;;;;;;;5012713;28;20029;-78
2022/03/26 12:33:14;;;;;;;9.43;5.32;;;;;;;;;;5012792;28;20034;-78
2022/03/26 12:35:42;;;;;;;10.88;6.32;;;;;;;;;;5012568;28;20033;-78
2022/03/26 12:38:08;;;;;;;13.52;6.40;;;;;;;;;;5012772;28;20026;-78
2022/03/26 12:40:36;;;;;;;12.43;6.93;;;;;;;;;;5012394;28;20022;-78
2022/03/26 12:43:02;;;;;;;10.60;6.30;;;;;;;;;;5012690;28;20033;-79
2022/03/26 12:45:31;;;;;;;9.30;5.90;;;;;;;;;;5012553;28;20034;-79
2022/03/26 12:47:57;;;;;;;14.25;8.35;;;;;;;;;;5012735;28;20127;-78
2022/03/26 12:50:24;;;;;;;10.75;7.13;;;;;;;;;;5012418;28;20080;-78
2022/03/26 12:52:51;;;;;;;10.23;6.35;;;;;;;;;;5012750;28;20018;-77
2022/03/26 12:55:18;;;;;;;9.80;6.70;;;;;;;;;;5012991;28;20033;-79
2022/03/26 13:00:33;;;;;;;10.98;5.75;;;;;;;;;;5012421;28;20500;-77
2022/03/26 13:03:09;;;;;;;9.70;6.72;;;;;;;;;;5012627;28;20065;-79
2022/03/26 13:05:37;;;;;;;10.68;6.88;;;;;;;;;;5012068;28;20022;-79
2022/03/26 13:08:03;;;;;;;10.20;5.45;;;;;;;;;;5013792;28;20029;-79
2022/03/26 13:10:48;;;;;;;12.60;8.77;;;;;;;;;;5017108;28;20057;-79
2022/03/26 13:13:14;;;;;;;11.77;6.25;;;;;;;;;;5017924;28;20022;-80
2022/03/26 13:15:40;;;;;;;11.27;7.40;;;;;;;;;;5017208;28;20061;-80
2022/03/26 13:18:07;;;;;;;10.93;6.72;;;;;;;;;;5016298;28;20135;-78
2022/03/26 13:20:35;;;;;;;12.88;6.60;;;;;;;;;;5016482;28;20056;-78
2022/03/26 13:23:02;;;;;;;9.85;5.90;;;;;;;;;;5016089;28;20021;-79
2022/03/26 13:25:32;;;;;;;11.02;7.45;;;;;;;;;;5016279;28;20029;-79
2022/03/26 13:28:17;;;;;;;9.73;6.18;;;;;;;;;;5031128;28;20132;-77
2022/03/26 13:30:44;;;;;;;11.77;5.60;;;;;;;;;;5015924;28;20033;-77
2022/03/26 13:33:12;;;;;;;8.60;5.68;;;;;;;;;;5016202;28;20033;-78
2022/03/26 13:35:39;;;;;;;10.32;6.18;;;;;;;;;;5015937;28;20033;-78
2022/03/26 13:38:09;;;;;;;9.35;5.65;;;;;;;;;;5015633;28;20057;-78
2022/03/26 13:40:36;;;;;;;9.85;6.00;;;;;;;;;;5015563;28;20025;-78
2022/03/26 13:43:02;;;;;;;11.70;6.22;;;;;;;;;;5016204;28;20030;-78
2022/03/26 13:45:28;;;;;;;11.93;6.65;;;;;;;;;;5015578;28;20072;-78
2022/03/26 13:47:56;;;;;;;12.25;5.50;;;;;;;;;;5015657;28;20033;-77
2022/03/26 13:50:22;;;;;;;9.70;5.35;;;;;;;;;;5015863;28;20018;-77
2022/03/26 13:52:50;;;;;;;10.48;5.20;;;;;;;;;;5015451;28;20037;-77
2022/03/26 13:55:24;;;;;;;10.68;5.90;;;;;;;;;;5016028;28;20487;-78
2022/03/26 13:57:50;;;;;;;9.10;5.80;;;;;;;;;;5015603;28;20030;-78
2022/03/26 14:00:17;;;;;;;10.38;6.57;;;;;;;;;;5015564;28;20374;-77
2022/03/26 14:02:43;;;;;;;12.25;5.55;;;;;;;;;;5015315;28;20030;-79
2022/03/26 14:08:08;;;;;;;12.23;5.72;;;;;;;;;;5015078;28;20111;-77
2022/03/26 14:10:39;;;;;;;8.93;5.75;;;;;;;;;;5015435;28;20461;-77
2022/03/26 14:13:07;;;;;;;9.30;5.63;;;;;;;;;;5015359;28;20025;-77
2022/03/26 14:15:33;;;;;;;9.85;6.07;;;;;;;;;;5015182;28;20397;-78
2022/03/26 14:18:00;;;;;;;11.32;6.60;;;;;;;;;;5015227;28;20056;-78
2022/03/26 14:20:26;;;;;;;8.23;5.30;;;;;;;;;;5014263;28;20030;-78
2022/03/26 14:22:56;;;;;;;7.65;4.70;;;;;;;;;;5015206;28;20386;-77
2022/03/26 14:25:23;;;;;;;7.03;4.57;;;;;;;;;;5030269;28;20034;-78
2022/03/26 14:27:49;;;;;;;8.77;5.05;;;;;;;;;;5014939;28;20477;-78
2022/03/26 14:30:16;;;;;;;8.10;4.80;;;;;;;;;;5015026;28;20466;-79
2022/03/26 14:32:42;;;;;;;7.47;5.78;;;;;;;;;;5014780;28;20026;-77
2022/03/26 14:35:08;;;;;;;9.65;5.95;;;;;;;;;;5014689;28;20105;-78
2022/03/26 14:37:34;;;;;;;10.63;6.80;;;;;;;;;;5014982;28;20103;-78
2022/03/26 14:40:00;;;;;;;11.10;5.15;;;;;;;;;;5014842;28;20124;-78
2022/03/26 14:42:26;;;;;;;9.38;5.20;;;;;;;;;;5014761;28;20026;-78
2022/03/26 14:44:53;;;;;;;9.18;6.03;;;;;;;;;;5014740;28;20034;-78